createdAt,value
2022-12-09T00:00:29.752Z,-23129.84
2022-12-09T00:02:33.937Z,-23130.50
2022-12-09T00:04:36.861Z,-23133.84
2022-12-09T00:06:39.724Z,-23135.63
2022-12-09T00:08:42.509Z,-23140.56
2022-12-09T00:10:46.164Z,-23138.66
2022-12-09T00:12:48.845Z,-23128.91
2022-12-09T00:14:51.643Z,-23130.66
2022-12-09T00:16:54.619Z,-23128.91
2022-12-09T00:18:59.160Z,-23128.56
2022-12-09T00:21:12.463Z,-23129.38
2022-12-09T00:23:15.276Z,-23128.56
2022-12-09T00:25:18.011Z,-23129.22
2022-12-09T00:27:20.670Z,-23128.09
2022-12-09T00:29:23.530Z,-23127.94
2022-12-09T00:31:28.270Z,-23127.28
2022-12-09T00:33:31.400Z,-23125.06
2022-12-09T00:35:35.421Z,-23127.28
2022-12-09T00:37:38.104Z,-23127.63
2022-12-09T00:39:40.807Z,-23128.56
2022-12-09T00:41:43.661Z,-23128.41
2022-12-09T00:43:46.395Z,-23127.13
2022-12-09T00:45:49.501Z,-23122.50
2022-12-09T00:47:52.392Z,-23123.47
2022-12-09T00:49:55.138Z,-23120.91
2022-12-09T00:51:59.323Z,-23122.81
2022-12-09T00:54:02.168Z,-23118.19
2022-12-09T00:56:05.398Z,-23116.75
2022-12-09T00:58:08.360Z,-23117.22
2022-12-09T01:00:12.316Z,-23117.69
2022-12-09T01:02:15.548Z,-23120.25
2022-12-09T01:04:18.709Z,-23120.75
2022-12-09T01:06:24.993Z,-23121.53
2022-12-09T01:08:29.241Z,-23118.66
2022-12-09T01:10:32.040Z,-23119.63
2022-12-09T01:12:34.759Z,-23116.25
2022-12-09T01:14:37.615Z,-23117.06
2022-12-09T01:16:40.397Z,-23118.34
2022-12-09T01:18:43.389Z,-23117.53
2022-12-09T01:20:46.157Z,-23111.94
2022-12-09T01:22:48.844Z,-23110.34
2022-12-09T01:24:53.001Z,-23112.91
2022-12-09T01:26:55.855Z,-23110.97
2022-12-09T01:28:58.811Z,-23110.97
2022-12-09T01:31:07.051Z,-23110.97
2022-12-09T01:33:09.976Z,-23113.38
2022-12-09T01:35:12.882Z,-23113.38
2022-12-09T01:37:15.800Z,-23114.19
2022-12-09T01:39:18.504Z,-23112.25
2022-12-09T01:41:23.398Z,-23114.19
2022-12-09T01:43:26.249Z,-23113.22
2022-12-09T01:45:45.749Z,-23113.38
2022-12-09T01:47:49.684Z,-23113.88
2022-12-09T01:49:52.520Z,-23115.63
2022-12-09T01:52:04.686Z,-23113.22
2022-12-09T01:54:08.050Z,-23104.91
2022-12-09T01:56:16.989Z,-23106.50
2022-12-09T01:58:21.358Z,-23106.50
2022-12-09T02:00:24.232Z,-23106.97
2022-12-09T02:02:29.079Z,-23106.50
2022-12-09T02:04:35.826Z,-23106.19
2022-12-09T02:06:39.931Z,-23106.19
2022-12-09T02:08:42.834Z,-23107.47
2022-12-09T02:10:54.118Z,-23103.16
2022-12-09T02:13:05.903Z,-23102.97
2022-12-09T02:15:16.139Z,-23102.97
2022-12-09T02:17:30.910Z,-23107.13
2022-12-09T02:19:50.211Z,-23103.63
2022-12-09T02:21:58.931Z,-23101.06
2022-12-09T02:24:07.004Z,-23099.16
2022-12-09T02:26:23.624Z,-23103.63
2022-12-09T02:28:48.854Z,-23104.25
2022-12-09T02:30:59.285Z,-23100.75
2022-12-09T02:33:25.118Z,-23100.75
2022-12-09T02:35:36.510Z,-23099.47
2022-12-09T02:37:43.272Z,-23102.81
2022-12-09T02:39:53.042Z,-23102.50
2022-12-09T02:41:59.556Z,-23097.84
2022-12-09T02:44:09.077Z,-23097.84
2022-12-09T02:46:12.808Z,-23101.06
2022-12-09T02:48:19.828Z,-23101.69
2022-12-09T02:50:26.583Z,-23098.81
2022-12-09T02:52:32.910Z,-23099.28
2022-12-09T02:54:39.645Z,-23098.34
2022-12-09T02:56:47.278Z,-23100.75
2022-12-09T02:58:50.380Z,-23097.53
2022-12-09T03:00:55.735Z,-23092.41
2022-12-09T03:03:02.845Z,-23097.53
2022-12-09T03:05:14.155Z,-23102.66
2022-12-09T03:07:26.146Z,-23100.09
2022-12-09T03:09:34.345Z,-23100.75
2022-12-09T03:11:39.114Z,-23100.75
2022-12-09T03:13:51.807Z,-23098.66
2022-12-09T03:15:59.611Z,-23098.19
2022-12-09T03:18:07.203Z,-23092.91
2022-12-09T03:20:14.407Z,-23094.66
2022-12-09T03:22:20.915Z,-23095.47
2022-12-09T03:24:27.211Z,-23096.56
2022-12-09T03:26:35.133Z,-23096.91
2022-12-09T03:28:42.377Z,-23094.50
2022-12-09T03:30:46.734Z,-23095.63
2022-12-09T03:32:51.069Z,-23097.22
2022-12-09T03:35:00.674Z,-23099.47
2022-12-09T03:37:05.293Z,-23102.81
2022-12-09T03:39:13.579Z,-23100.75
2022-12-09T03:41:21.899Z,-23097.69
2022-12-09T03:43:30.959Z,-23097.22
2022-12-09T03:45:34.706Z,-23096.41
2022-12-09T03:47:39.034Z,-23102.03
2022-12-09T03:49:42.026Z,-23102.03
2022-12-09T03:51:49.138Z,-23104.59
2022-12-09T03:53:57.319Z,-23106.50
2022-12-09T03:56:07.792Z,-23108.09
2022-12-09T03:58:13.753Z,-23110.97
2022-12-09T04:00:19.036Z,-23110.66
2022-12-09T04:02:22.231Z,-23110.66
2022-12-09T04:04:25.255Z,-23100.41
2022-12-09T04:06:28.307Z,-23099.47
2022-12-09T04:08:31.257Z,-23094.03
2022-12-09T04:10:34.047Z,-23098.50
2022-12-09T04:12:36.910Z,-23101.38
2022-12-09T04:14:40.232Z,-23097.38
2022-12-09T04:16:44.540Z,-23098.81
2022-12-09T04:18:47.540Z,-23096.41
2022-12-09T04:20:50.607Z,-23094.34
2022-12-09T04:22:53.388Z,-23093.53
2022-12-09T04:24:56.148Z,-23096.25
2022-12-09T04:26:58.738Z,-23094.03
2022-12-09T04:29:01.973Z,-23098.03
2022-12-09T04:31:05.137Z,-23095.78
2022-12-09T04:33:09.370Z,-23097.38
2022-12-09T04:35:12.516Z,-23102.34
2022-12-09T04:37:15.333Z,-23099.16
2022-12-09T04:39:19.507Z,-23106.81
2022-12-09T04:41:22.864Z,-23107.94
2022-12-09T04:43:25.667Z,-23108.91
2022-12-09T04:45:29.237Z,-23110.66
2022-12-09T04:47:33.736Z,-23112.91
2022-12-09T04:49:38.206Z,-23113.88
2022-12-09T04:51:41.134Z,-23114.34
2022-12-09T04:53:44.528Z,-23114.19
2022-12-09T04:55:47.353Z,-23116.25
2022-12-09T04:57:50.114Z,-23116.41
2022-12-09T04:59:52.985Z,-23116.09
2022-12-09T05:01:56.046Z,-23116.75
2022-12-09T05:04:00.767Z,-23116.59
2022-12-09T05:06:15.494Z,-23118.19
2022-12-09T05:08:18.671Z,-23118.66
2022-12-09T05:10:21.714Z,-23119.47
2022-12-09T05:12:24.854Z,-23119.13
2022-12-09T05:14:27.631Z,-23119.31
2022-12-09T05:16:30.427Z,-23119.78
2022-12-09T05:18:33.652Z,-23119.78
2022-12-09T05:20:40.112Z,-23121.06
2022-12-09T05:22:44.621Z,-23116.09
2022-12-09T05:24:48.173Z,-23116.75
2022-12-09T05:26:51.332Z,-23116.75
2022-12-09T05:28:54.313Z,-23116.09
2022-12-09T05:31:00.953Z,-23114.50
2022-12-09T05:33:04.263Z,-23114.50
2022-12-09T05:35:07.600Z,-23116.91
2022-12-09T05:37:14.833Z,-23115.94
2022-12-09T05:39:18.862Z,-23115.47
2022-12-09T05:41:22.963Z,-23115.16
2022-12-09T05:43:25.984Z,-23115.63
2022-12-09T05:45:29.010Z,-23115.47
2022-12-09T05:47:31.965Z,-23118.50
2022-12-09T05:49:34.985Z,-23118.03
2022-12-09T05:51:38.478Z,-23118.34
2022-12-09T05:53:42.170Z,-23118.81
2022-12-09T05:55:46.482Z,-23121.22
2022-12-09T05:57:49.308Z,-23119.63
2022-12-09T05:59:52.413Z,-23120.91
2022-12-09T06:01:55.262Z,-23122.19
2022-12-09T06:03:58.260Z,-23123.63
2022-12-09T06:06:06.647Z,-23121.22
2022-12-09T06:08:10.072Z,-23122.19
2022-12-09T06:10:13.536Z,-23124.41
2022-12-09T06:12:18.310Z,-23126.03
2022-12-09T06:14:21.016Z,-23125.06
2022-12-09T06:16:24.372Z,-23127.94
2022-12-09T06:18:27.459Z,-23127.28
2022-12-09T06:20:30.619Z,-23126.34
2022-12-09T06:22:33.887Z,-23127.63
2022-12-09T06:24:36.628Z,-23127.28
2022-12-09T06:26:39.428Z,-23126.34
2022-12-09T06:28:43.543Z,-23126.66
2022-12-09T06:30:46.433Z,-23129.53
2022-12-09T06:32:49.842Z,-23126.03
2022-12-09T06:34:53.058Z,-23129.38
2022-12-09T06:36:56.013Z,-23128.56
2022-12-09T06:39:07.701Z,-23126.97
2022-12-09T06:41:14.317Z,-23129.38
2022-12-09T06:43:17.359Z,-23136.09
2022-12-09T06:45:22.314Z,-23133.06
2022-12-09T06:47:25.165Z,-23126.81
2022-12-09T06:49:28.668Z,-23125.84
2022-12-09T06:51:31.498Z,-23128.91
2022-12-09T06:53:34.317Z,-23129.22
2022-12-09T06:55:37.328Z,-23128.91
2022-12-09T06:57:40.125Z,-23127.13
2022-12-09T06:59:42.971Z,-23128.75
2022-12-09T07:01:47.688Z,-23128.75
2022-12-09T07:03:52.565Z,-23129.84
2022-12-09T07:05:55.684Z,-23134.81
2022-12-09T07:07:58.912Z,-23131.47
2022-12-09T07:10:03.960Z,-23131.63
2022-12-09T07:12:07.956Z,-23134.97
2022-12-09T07:14:11.644Z,-23136.41
2022-12-09T07:16:14.878Z,-23137.53
2022-12-09T07:18:19.207Z,-23137.22
2022-12-09T07:20:22.355Z,-23137.22
2022-12-09T07:22:25.453Z,-23137.53
2022-12-09T07:24:28.497Z,-23145.69
2022-12-09T07:26:31.917Z,-23141.06
2022-12-09T07:28:35.880Z,-23138.50
2022-12-09T07:30:39.642Z,-23137.53
2022-12-09T07:32:42.917Z,-23141.84
2022-12-09T07:34:47.171Z,-23141.38
2022-12-09T07:36:50.167Z,-23139.44
2022-12-09T07:38:56.527Z,-23138.50
2022-12-09T07:41:06.348Z,-23138.00
2022-12-09T07:43:09.504Z,-23136.41
2022-12-09T07:45:13.413Z,-23137.53
2022-12-09T07:47:17.204Z,-23140.25
2022-12-09T07:49:20.160Z,-23141.06
2022-12-09T07:51:25.416Z,-23139.63
2022-12-09T07:53:29.050Z,-23141.06
2022-12-09T07:55:31.895Z,-23142.34
2022-12-09T07:57:37.882Z,-23139.28
2022-12-09T07:59:41.584Z,-23142.97
2022-12-09T08:01:44.595Z,-23142.00
2022-12-09T08:03:48.482Z,-23142.00
2022-12-09T08:05:52.722Z,-23142.97
2022-12-09T08:07:57.627Z,-23143.59
2022-12-09T08:10:01.169Z,-23145.84
2022-12-09T08:12:04.470Z,-23151.91
2022-12-09T08:14:12.339Z,-23151.44
2022-12-09T08:16:18.508Z,-23152.09
2022-12-09T08:18:21.389Z,-23152.41
2022-12-09T08:20:29.000Z,-23156.88
2022-12-09T08:22:32.507Z,-23156.88
2022-12-09T08:24:37.039Z,-23155.91
2022-12-09T08:26:40.410Z,-23156.25
2022-12-09T08:28:43.614Z,-23157.69
2022-12-09T08:30:47.173Z,-23154.47
2022-12-09T08:32:50.260Z,-23153.84
2022-12-09T08:34:53.218Z,-23150.16
2022-12-09T08:37:01.748Z,-23153.03
2022-12-09T08:39:05.475Z,-23150.81
2022-12-09T08:41:16.209Z,-23158.16
2022-12-09T08:43:19.103Z,-23158.78
2022-12-09T08:45:22.431Z,-23163.28
2022-12-09T08:47:25.354Z,-23164.06
2022-12-09T08:49:29.812Z,-23166.16
2022-12-09T08:51:33.439Z,-23160.72
2022-12-09T08:53:37.054Z,-23155.44
2022-12-09T08:55:41.429Z,-23153.69
2022-12-09T08:57:45.853Z,-23158.31
2022-12-09T08:59:49.173Z,-23166.31
2022-12-09T09:01:52.434Z,-23162.16
2022-12-09T09:03:55.692Z,-23158.31
2022-12-09T09:06:08.687Z,-23153.84
2022-12-09T09:08:12.564Z,-23157.84
2022-12-09T09:10:16.181Z,-23158.31
2022-12-09T09:12:19.600Z,-23163.44
2022-12-09T09:14:23.724Z,-23158.97
2022-12-09T09:16:28.443Z,-23160.72
2022-12-09T09:18:31.712Z,-23159.28
2022-12-09T09:20:34.508Z,-23157.03
2022-12-09T09:22:37.203Z,-23158.63
2022-12-09T09:24:40.361Z,-23157.69
2022-12-09T09:26:44.298Z,-23156.56
2022-12-09T09:28:48.100Z,-23153.19
2022-12-09T09:30:59.749Z,-23152.88
2022-12-09T09:33:02.773Z,-23158.97
2022-12-09T09:35:06.425Z,-23162.63
2022-12-09T09:37:09.468Z,-23151.91
2022-12-09T09:39:12.551Z,-23161.84
2022-12-09T09:41:22.500Z,-23153.53
2022-12-09T09:43:29.091Z,-23155.59
2022-12-09T09:45:32.031Z,-23158.97
2022-12-09T09:47:40.846Z,-23163.28
2022-12-09T09:49:47.728Z,-23162.78
2022-12-09T09:51:51.251Z,-23162.94
2022-12-09T09:53:54.838Z,-23163.75
2022-12-09T09:56:00.685Z,-23167.44
2022-12-09T09:58:12.386Z,-23164.72
2022-12-09T10:00:23.441Z,-23166.78
2022-12-09T10:02:41.769Z,-23163.28
2022-12-09T10:05:06.007Z,-23170.94
2022-12-09T10:07:16.340Z,-23163.44
2022-12-09T10:09:23.866Z,-23159.28
2022-12-09T10:11:33.117Z,-23165.66
2022-12-09T10:13:46.611Z,-23159.91
2022-12-09T10:16:01.995Z,-23171.09
2022-12-09T10:18:15.319Z,-23173.81
2022-12-09T10:20:19.475Z,-23170.78
2022-12-09T10:22:25.670Z,-23168.88
2022-12-09T10:24:38.714Z,-23173.66
2022-12-09T10:26:43.746Z,-23172.69
2022-12-09T10:28:50.364Z,-23171.41
2022-12-09T10:30:54.759Z,-23162.78
2022-12-09T10:32:57.901Z,-23169.81
2022-12-09T10:35:03.732Z,-23176.84
2022-12-09T10:37:06.518Z,-23180.69
2022-12-09T10:39:15.275Z,-23179.72
2022-12-09T10:41:44.793Z,-23181.97
2022-12-09T10:43:47.972Z,-23179.72
2022-12-09T10:46:17.439Z,-23182.59
2022-12-09T10:48:32.795Z,-23188.34
2022-12-09T10:50:38.151Z,-23185.31
2022-12-09T10:52:45.331Z,-23174.28
2022-12-09T10:54:49.599Z,-23170.78
2022-12-09T10:57:06.422Z,-23172.53
2022-12-09T10:59:11.586Z,-23175.88
2022-12-09T11:01:16.722Z,-23173.34
2022-12-09T11:03:26.473Z,-23173.97
2022-12-09T11:05:33.884Z,-23180.53
2022-12-09T11:07:38.588Z,-23183.56
2022-12-09T11:09:43.935Z,-23187.72
2022-12-09T11:11:49.000Z,-23184.19
2022-12-09T11:13:52.576Z,-23181.66
2022-12-09T11:15:59.465Z,-23185.31
2022-12-09T11:18:04.542Z,-23181.66
2022-12-09T11:20:19.566Z,-23187.72
2022-12-09T11:22:33.482Z,-23180.84
2022-12-09T11:24:37.837Z,-23175.72
2022-12-09T11:26:41.327Z,-23183.88
2022-12-09T11:28:44.140Z,-23177.81
2022-12-09T11:31:27.112Z,-23185.16
2022-12-09T11:33:26.351Z,-23187.22
2022-12-09T11:35:38.464Z,-23186.44
2022-12-09T11:37:41.889Z,-23183.72
2022-12-09T11:39:50.395Z,-23189.94
2022-12-09T11:42:17.149Z,-23179.41
2022-12-09T11:44:27.299Z,-23185.16
2022-12-09T11:46:33.244Z,-23187.41
2022-12-09T11:48:41.836Z,-23182.75
2022-12-09T11:50:51.053Z,-23188.84
2022-12-09T11:53:07.785Z,-23183.25
2022-12-09T11:55:19.643Z,-23192.19
2022-12-09T11:57:31.869Z,-23189.63
2022-12-09T11:59:39.013Z,-23191.38
2022-12-09T12:01:49.532Z,-23192.19
2022-12-09T12:03:56.734Z,-23181.66
2022-12-09T12:06:03.599Z,-23178.44
2022-12-09T12:08:15.729Z,-23181.66
2022-12-09T12:10:25.489Z,-23179.41
2022-12-09T12:12:42.427Z,-23181.16
2022-12-09T12:14:45.294Z,-23188.34
2022-12-09T12:16:58.240Z,-23188.50
2022-12-09T12:19:06.767Z,-23189.78
2022-12-09T12:21:43.525Z,-23177.31
2022-12-09T12:24:11.230Z,-23186.91
2022-12-09T12:26:20.067Z,-23187.72
2022-12-09T12:28:55.329Z,-23189.31
2022-12-09T12:31:11.320Z,-23191.06
2022-12-09T12:36:01.923Z,-23189.94
2022-12-09T12:38:16.893Z,-23181.97
2022-12-09T12:40:30.283Z,-23184.03
2022-12-09T12:43:06.279Z,-23185.78
2022-12-09T12:45:34.926Z,-23193.16
2022-12-09T12:47:51.272Z,-23183.56
2022-12-09T12:50:10.238Z,-23184.34
2022-12-09T12:55:00.809Z,-23182.75
2022-12-09T12:57:10.150Z,-23179.41
2022-12-09T12:59:21.929Z,-23189.16
2022-12-09T13:01:30.673Z,-23189.16
2022-12-09T13:03:43.911Z,-23194.75
2022-12-09T13:05:50.007Z,-23190.44
2022-12-09T13:07:58.544Z,-23189.78
2022-12-09T13:10:06.766Z,-23195.53
2022-12-09T13:12:16.132Z,-23193.47
2022-12-09T13:14:24.576Z,-23185.31
2022-12-09T13:16:30.789Z,-23196.66
2022-12-09T13:18:37.444Z,-23191.22
2022-12-09T13:20:47.772Z,-23189.94
2022-12-09T13:22:57.199Z,-23188.66
2022-12-09T13:25:08.490Z,-23190.75
2022-12-09T13:27:19.593Z,-23190.59
2022-12-09T13:29:32.973Z,-23189.94
2022-12-09T13:31:37.742Z,-23191.88
2022-12-09T13:33:48.691Z,-23193.31
2022-12-09T13:35:56.573Z,-23185.16
2022-12-09T13:38:01.453Z,-23185.16
2022-12-09T13:40:27.606Z,-23182.28
2022-12-09T13:42:53.063Z,-23175.56
2022-12-09T13:45:06.464Z,-23183.25
2022-12-09T13:47:34.714Z,-23180.84
2022-12-09T13:49:38.440Z,-23182.75
2022-12-09T13:51:48.113Z,-23187.72
2022-12-09T13:54:00.777Z,-23181.66
2022-12-09T13:56:06.196Z,-23181.31
2022-12-09T13:58:31.078Z,-23176.22
2022-12-09T14:00:35.418Z,-23174.13
2022-12-09T14:02:42.077Z,-23179.41
2022-12-09T14:04:50.136Z,-23179.09
2022-12-09T14:07:10.414Z,-23182.59
2022-12-09T14:09:37.409Z,-23179.72
2022-12-09T14:11:48.123Z,-23177.66
2022-12-09T14:13:50.797Z,-23172.38
2022-12-09T14:16:18.520Z,-23176.22
2022-12-09T14:18:30.787Z,-23180.38
2022-12-09T14:20:37.108Z,-23179.41
2022-12-09T14:22:40.452Z,-23184.19
2022-12-09T14:24:43.144Z,-23176.69
2022-12-09T14:26:47.722Z,-23177.97
2022-12-09T14:28:55.535Z,-23181.66
2022-12-09T14:31:06.530Z,-23173.97
2022-12-09T14:33:23.589Z,-23174.63
2022-12-09T14:35:33.309Z,-23177.31
2022-12-09T14:38:11.036Z,-23175.56
2022-12-09T14:40:32.355Z,-23175.25
2022-12-09T14:42:44.767Z,-23173.50
2022-12-09T14:44:57.618Z,-23175.88
2022-12-09T14:47:16.565Z,-23178.13
2022-12-09T14:49:21.873Z,-23178.13
2022-12-09T14:51:29.027Z,-23186.28
2022-12-09T14:53:35.873Z,-23184.84
2022-12-09T14:55:42.019Z,-23183.88
2022-12-09T14:57:47.316Z,-23184.53
2022-12-09T14:59:51.354Z,-23183.41
2022-12-09T15:01:56.258Z,-23182.44
2022-12-09T15:04:00.846Z,-23184.19
2022-12-09T15:06:07.575Z,-23183.88
2022-12-09T15:08:28.987Z,-23184.84
2022-12-09T15:10:36.337Z,-23185.97
2022-12-09T15:12:41.585Z,-23183.72
2022-12-09T15:14:45.494Z,-23185.31
2022-12-09T15:16:50.816Z,-23188.34
2022-12-09T15:18:55.296Z,-23183.25
2022-12-09T15:21:01.265Z,-23186.28
2022-12-09T15:23:07.722Z,-23179.09
2022-12-09T15:25:17.876Z,-23183.25
2022-12-09T15:27:22.448Z,-23186.13
2022-12-09T15:29:30.447Z,-23184.69
2022-12-09T15:31:35.138Z,-23183.56
2022-12-09T15:33:41.126Z,-23181.00
2022-12-09T15:35:49.914Z,-23182.91
2022-12-09T15:37:55.657Z,-23184.19
2022-12-09T15:40:02.958Z,-23185.31
2022-12-09T15:42:10.873Z,-23184.53
2022-12-09T15:44:17.238Z,-23185.47
2022-12-09T15:46:20.565Z,-23185.97
2022-12-09T15:48:30.452Z,-23186.44
2022-12-09T15:50:37.036Z,-23183.09
2022-12-09T15:52:47.218Z,-23183.56
2022-12-09T15:54:51.297Z,-23181.47
2022-12-09T15:56:58.648Z,-23184.19
2022-12-09T15:59:06.187Z,-23183.25
2022-12-09T16:01:09.522Z,-23184.19
2022-12-09T16:03:12.268Z,-23187.22
2022-12-09T16:05:21.827Z,-23184.84
2022-12-09T16:07:25.532Z,-23181.31
2022-12-09T16:09:28.134Z,-23185.16
2022-12-09T16:11:38.354Z,-23184.19
2022-12-09T16:14:00.489Z,-23185.63
2022-12-09T16:16:25.185Z,-23187.06
2022-12-09T16:18:31.154Z,-23186.75
2022-12-09T16:20:36.346Z,-23188.84
2022-12-09T16:22:42.191Z,-23191.22
2022-12-09T16:27:17.749Z,-23185.63
2022-12-09T16:29:27.423Z,-23187.72
2022-12-09T16:31:31.099Z,-23187.06
2022-12-09T16:33:39.050Z,-23184.34
2022-12-09T16:35:43.816Z,-23180.84
2022-12-09T16:38:14.555Z,-23182.28
2022-12-09T16:41:09.122Z,-23183.56
2022-12-09T16:43:21.159Z,-23182.59
2022-12-09T16:45:32.114Z,-23177.00
2022-12-09T16:47:35.072Z,-23177.81
2022-12-09T16:49:37.872Z,-23183.72
2022-12-09T16:51:41.252Z,-23184.84
2022-12-09T16:53:46.023Z,-23181.66
2022-12-09T16:55:53.618Z,-23184.19
2022-12-09T16:57:57.645Z,-23180.19
2022-12-09T17:00:00.289Z,-23176.84
2022-12-09T17:02:04.782Z,-23178.13
2022-12-09T17:04:15.015Z,-23182.28
2022-12-09T17:06:20.327Z,-23182.91
2022-12-09T17:08:23.070Z,-23188.84
2022-12-09T17:10:25.988Z,-23184.53
2022-12-09T17:12:28.720Z,-23182.13
2022-12-09T17:14:32.026Z,-23184.03
2022-12-09T17:16:37.691Z,-23180.53
2022-12-09T17:18:42.369Z,-23184.84
2022-12-09T17:20:45.227Z,-23180.69
2022-12-09T17:22:47.869Z,-23184.69
2022-12-09T17:24:51.140Z,-23185.47
2022-12-09T17:26:53.876Z,-23185.31
2022-12-09T17:29:01.461Z,-23183.56
2022-12-09T17:31:08.394Z,-23181.97
2022-12-09T17:33:11.040Z,-23183.25
2022-12-09T17:35:16.345Z,-23185.97
2022-12-09T17:37:19.112Z,-23185.97
2022-12-09T17:39:24.677Z,-23183.88
2022-12-09T17:41:27.455Z,-23186.13
2022-12-09T17:43:30.215Z,-23183.41
2022-12-09T17:45:36.230Z,-23182.91
2022-12-09T17:47:43.064Z,-23183.41
2022-12-09T17:49:45.825Z,-23185.31
2022-12-09T17:51:49.884Z,-23188.66
2022-12-09T17:53:52.709Z,-23186.75
2022-12-09T17:55:55.516Z,-23184.84
2022-12-09T17:57:58.356Z,-23184.53
2022-12-09T18:00:01.150Z,-23187.72
2022-12-09T18:02:04.667Z,-23186.75
2022-12-09T18:04:10.349Z,-23184.03
2022-12-09T18:06:13.129Z,-23184.19
2022-12-09T18:08:17.244Z,-23185.63
2022-12-09T18:10:20.200Z,-23188.03
2022-12-09T18:12:23.207Z,-23192.50
2022-12-09T18:14:26.469Z,-23188.34
2022-12-09T18:16:29.620Z,-23191.06
2022-12-09T18:18:32.363Z,-23192.50
2022-12-09T18:20:35.257Z,-23192.50
2022-12-09T18:22:38.086Z,-23190.59
2022-12-09T18:24:42.130Z,-23193.63
2022-12-09T18:26:45.090Z,-23190.59
2022-12-09T18:28:47.779Z,-23190.44
2022-12-09T18:30:50.515Z,-23188.34
2022-12-09T18:32:53.357Z,-23192.66
2022-12-09T18:34:55.981Z,-23194.75
2022-12-09T18:36:58.735Z,-23189.31
2022-12-09T18:39:01.399Z,-23187.41
2022-12-09T18:41:05.722Z,-23186.44
2022-12-09T18:43:08.371Z,-23189.00
2022-12-09T18:45:11.629Z,-23190.28
2022-12-09T18:47:14.394Z,-23191.88
2022-12-09T18:49:19.216Z,-23185.31
2022-12-09T18:51:22.716Z,-23187.41
2022-12-09T18:53:25.707Z,-23191.22
2022-12-09T18:55:28.714Z,-23190.44
2022-12-09T18:57:33.054Z,-23189.31
2022-12-09T18:59:35.714Z,-23191.53
2022-12-09T19:01:41.160Z,-23190.28
2022-12-09T19:03:44.462Z,-23189.94
2022-12-09T19:05:47.173Z,-23187.88
2022-12-09T19:07:49.911Z,-23190.91
2022-12-09T19:09:52.699Z,-23191.72
2022-12-09T19:11:55.487Z,-23189.00
2022-12-09T19:14:00.477Z,-23189.31
2022-12-09T19:16:04.975Z,-23191.53
2022-12-09T19:18:07.694Z,-23190.91
2022-12-09T19:20:11.552Z,-23186.59
2022-12-09T19:22:14.579Z,-23190.75
2022-12-09T19:24:19.326Z,-23188.84
2022-12-09T19:26:24.060Z,-23188.66
2022-12-09T19:28:26.773Z,-23189.63
2022-12-09T19:30:31.347Z,-23192.19
2022-12-09T19:32:53.112Z,-23188.84
2022-12-09T19:34:56.078Z,-23190.59
2022-12-09T19:37:00.827Z,-23189.00
2022-12-09T19:39:06.063Z,-23185.78
2022-12-09T19:41:08.867Z,-23186.75
2022-12-09T19:43:11.648Z,-23190.28
2022-12-09T19:45:14.765Z,-23188.34
2022-12-09T19:47:18.970Z,-23190.09
2022-12-09T19:49:23.568Z,-23187.72
2022-12-09T19:51:27.212Z,-23190.91
2022-12-09T19:53:30.074Z,-23188.66
2022-12-09T19:55:35.514Z,-23189.63
2022-12-09T19:57:38.242Z,-23192.19
2022-12-09T19:59:40.898Z,-23190.28
2022-12-09T20:01:45.772Z,-23194.75
2022-12-09T20:03:51.582Z,-23189.47
2022-12-09T20:05:56.271Z,-23194.59
2022-12-09T20:07:58.975Z,-23195.69
2022-12-09T20:10:01.699Z,-23191.72
2022-12-09T20:12:04.529Z,-23190.28
2022-12-09T20:14:08.890Z,-23191.22
2022-12-09T20:16:14.969Z,-23192.50
2022-12-09T20:18:17.741Z,-23194.09
2022-12-09T20:20:23.693Z,-23193.63
2022-12-09T20:22:26.368Z,-23195.06
2022-12-09T20:24:30.745Z,-23191.22
2022-12-09T20:26:36.099Z,-23190.28
2022-12-09T20:28:40.439Z,-23190.28
2022-12-09T20:30:43.080Z,-23189.31
2022-12-09T20:32:48.480Z,-23193.16
2022-12-09T20:34:51.348Z,-23192.50
2022-12-09T20:36:55.609Z,-23191.53
2022-12-09T20:39:00.152Z,-23190.91
2022-12-09T20:41:07.083Z,-23193.78
2022-12-09T20:43:09.593Z,-23193.16
2022-12-09T20:45:12.706Z,-23192.19
2022-12-09T20:47:15.360Z,-23191.88
2022-12-09T20:49:20.105Z,-23196.34
2022-12-09T20:51:24.790Z,-23195.69
2022-12-09T20:53:28.723Z,-23191.88
2022-12-09T20:55:31.402Z,-23193.16
2022-12-09T20:57:34.084Z,-23191.88
2022-12-09T20:59:36.742Z,-23190.59
2022-12-09T21:01:40.142Z,-23192.81
2022-12-09T21:03:44.021Z,-23190.44
2022-12-09T21:05:46.878Z,-23191.88
2022-12-09T21:07:49.592Z,-23196.34
2022-12-09T21:09:53.639Z,-23195.06
2022-12-09T21:11:57.104Z,-23198.72
2022-12-09T21:14:01.574Z,-23200.16
2022-12-09T21:16:06.001Z,-23196.97
2022-12-09T21:18:08.687Z,-23194.75
2022-12-09T21:20:13.122Z,-23191.38
2022-12-09T21:22:15.749Z,-23193.78
2022-12-09T21:24:19.410Z,-23194.41
2022-12-09T21:26:25.185Z,-23192.34
2022-12-09T21:28:29.277Z,-23192.19
2022-12-09T21:30:31.900Z,-23193.63
2022-12-09T21:32:35.063Z,-23188.84
2022-12-09T21:34:37.682Z,-23193.16
2022-12-09T21:36:43.054Z,-23190.59
2022-12-09T21:38:45.847Z,-23193.16
2022-12-09T21:40:49.163Z,-23192.66
2022-12-09T21:42:53.194Z,-23193.16
2022-12-09T21:44:55.862Z,-23191.38
2022-12-09T21:46:58.480Z,-23190.91
2022-12-09T21:49:04.410Z,-23190.91
2022-12-09T21:51:07.742Z,-23192.50
2022-12-09T21:53:10.429Z,-23192.34
2022-12-09T21:55:13.264Z,-23193.63
2022-12-09T21:57:16.168Z,-23190.91
2022-12-09T21:59:20.590Z,-23189.63
2022-12-09T22:01:27.160Z,-23186.13
2022-12-09T22:03:30.094Z,-23190.28
2022-12-09T22:05:33.466Z,-23190.44
2022-12-09T22:07:36.213Z,-23192.19
2022-12-09T22:09:39.008Z,-23195.69
2022-12-09T22:11:42.182Z,-23196.34
2022-12-09T22:13:44.894Z,-23195.38
2022-12-09T22:15:48.923Z,-23192.50
2022-12-09T22:17:51.595Z,-23194.91
2022-12-09T22:20:15.915Z,-23193.94
2022-12-09T22:22:17.025Z,-23193.63
2022-12-09T22:24:19.940Z,-23192.03
2022-12-09T22:26:23.954Z,-23192.66
2022-12-09T22:28:26.919Z,-23190.59
2022-12-09T22:30:29.531Z,-23187.72
2022-12-09T22:32:37.806Z,-23189.31
2022-12-09T22:34:44.701Z,-23192.03
2022-12-09T22:36:48.144Z,-23190.28
2022-12-09T22:38:51.409Z,-23191.88
2022-12-09T22:40:54.110Z,-23189.94
2022-12-09T22:42:56.775Z,-23192.81
2022-12-09T22:45:00.136Z,-23192.81
2022-12-09T22:47:02.809Z,-23195.38
2022-12-09T22:49:07.577Z,-23194.41
2022-12-09T22:51:12.705Z,-23193.31
2022-12-09T22:53:15.338Z,-23191.72
2022-12-09T22:55:18.044Z,-23189.16
2022-12-09T22:57:20.682Z,-23193.31
2022-12-09T22:59:23.410Z,-23190.28
2022-12-09T23:01:28.179Z,-23191.88
2022-12-09T23:03:30.912Z,-23194.25
2022-12-09T23:05:38.549Z,-23191.22
2022-12-09T23:07:41.638Z,-23189.47
2022-12-09T23:09:44.371Z,-23189.63
2022-12-09T23:11:47.225Z,-23187.72
2022-12-09T23:13:49.935Z,-23189.78
2022-12-09T23:15:52.697Z,-23191.22
2022-12-09T23:17:56.749Z,-23200.97
2022-12-09T23:19:59.439Z,-23195.38
2022-12-09T23:22:03.481Z,-23194.09
2022-12-09T23:24:09.105Z,-23191.38
2022-12-09T23:26:14.751Z,-23194.09
2022-12-09T23:28:17.664Z,-23195.38
2022-12-09T23:30:20.318Z,-23191.06
2022-12-09T23:32:22.911Z,-23190.28
2022-12-09T23:34:25.593Z,-23191.06
2022-12-09T23:36:31.591Z,-23192.50
2022-12-09T23:38:35.791Z,-23192.81
2022-12-09T23:40:38.478Z,-23192.34
2022-12-09T23:42:41.170Z,-23188.66
2022-12-09T23:44:43.832Z,-23188.19
2022-12-09T23:46:47.205Z,-23184.34
2022-12-09T23:48:51.423Z,-23184.03
2022-12-09T23:50:54.826Z,-23186.28
2022-12-09T23:52:57.463Z,-23188.34
2022-12-09T23:55:04.573Z,-23188.84
2022-12-09T23:57:07.441Z,-23184.84
2022-12-09T23:59:13.388Z,-23186.44
